sensor_id;sensor_type;location;lat;lon;timestamp;P1;durP1;ratioP1;P2;durP2;ratioP2
77738;SDS011;66904;59.926;30.404;2024-01-30T00:03:20;2.25;;;0.80;;
77738;SDS011;66904;59.926;30.404;2024-01-30T00:08:31;1.73;;;0.93;;
77738;SDS011;66904;59.926;30.404;2024-01-30T00:13:42;2.20;;;0.82;;
77738;SDS011;66904;59.926;30.404;2024-01-30T00:18:53;2.00;;;0.75;;
77738;SDS011;66904;59.926;30.404;2024-01-30T00:24:04;2.95;;;0.73;;
77738;SDS011;66904;59.926;30.404;2024-01-30T00:29:15;2.45;;;0.80;;
77738;SDS011;66904;59.926;30.404;2024-01-30T00:34:29;4.22;;;1.02;;
77738;SDS011;66904;59.926;30.404;2024-01-30T00:39:40;2.53;;;0.77;;
77738;SDS011;66904;59.926;30.404;2024-01-30T00:44:51;3.40;;;1.02;;
77738;SDS011;66904;59.926;30.404;2024-01-30T00:50:02;2.55;;;1.00;;
77738;SDS011;66904;59.926;30.404;2024-01-30T00:55:13;3.40;;;0.95;;
77738;SDS011;66904;59.926;30.404;2024-01-30T01:00:24;1.60;;;0.80;;
77738;SDS011;66904;59.926;30.404;2024-01-30T01:05:39;3.80;;;0.88;;
77738;SDS011;66904;59.926;30.404;2024-01-30T01:10:50;2.42;;;0.93;;
77738;SDS011;66904;59.926;30.404;2024-01-30T01:16:00;2.92;;;0.80;;
77738;SDS011;66904;59.926;30.404;2024-01-30T01:21:11;2.75;;;0.73;;
77738;SDS011;66904;59.926;30.404;2024-01-30T01:26:22;3.42;;;0.85;;
77738;SDS011;66904;59.926;30.404;2024-01-30T01:31:32;2.30;;;1.02;;
77738;SDS011;66904;59.926;30.404;2024-01-30T01:36:43;2.28;;;0.98;;
77738;SDS011;66904;59.926;30.404;2024-01-30T01:41:54;2.35;;;0.93;;
77738;SDS011;66904;59.926;30.404;2024-01-30T01:47:04;1.40;;;0.80;;
77738;SDS011;66904;59.926;30.404;2024-01-30T01:52:15;2.03;;;1.02;;
77738;SDS011;66904;59.926;30.404;2024-01-30T01:57:27;2.88;;;0.75;;
77738;SDS011;66904;59.926;30.404;2024-01-30T02:02:38;1.92;;;0.63;;
77738;SDS011;66904;59.926;30.404;2024-01-30T02:07:49;1.50;;;0.57;;
77738;SDS011;66904;59.926;30.404;2024-01-30T02:13:00;3.50;;;0.68;;
77738;SDS011;66904;59.926;30.404;2024-01-30T02:18:11;2.63;;;0.60;;
77738;SDS011;66904;59.926;30.404;2024-01-30T02:23:42;4.05;;;1.10;;
77738;SDS011;66904;59.926;30.404;2024-01-30T02:28:55;2.60;;;0.90;;
77738;SDS011;66904;59.926;30.404;2024-01-30T02:34:05;2.42;;;0.70;;
77738;SDS011;66904;59.926;30.404;2024-01-30T02:39:16;3.08;;;0.60;;
77738;SDS011;66904;59.926;30.404;2024-01-30T02:44:27;2.63;;;0.80;;
77738;SDS011;66904;59.926;30.404;2024-01-30T02:49:38;1.88;;;0.60;;
77738;SDS011;66904;59.926;30.404;2024-01-30T02:54:48;1.75;;;0.90;;
77738;SDS011;66904;59.926;30.404;2024-01-30T02:59:59;2.05;;;0.88;;
77738;SDS011;66904;59.926;30.404;2024-01-30T03:05:10;3.35;;;1.00;;
77738;SDS011;66904;59.926;30.404;2024-01-30T03:10:21;2.15;;;0.55;;
77738;SDS011;66904;59.926;30.404;2024-01-30T03:15:32;1.23;;;0.60;;
77738;SDS011;66904;59.926;30.404;2024-01-30T03:20:43;3.15;;;0.98;;
77738;SDS011;66904;59.926;30.404;2024-01-30T03:25:53;3.38;;;0.98;;
77738;SDS011;66904;59.926;30.404;2024-01-30T03:31:04;2.03;;;0.77;;
77738;SDS011;66904;59.926;30.404;2024-01-30T03:36:15;1.83;;;0.73;;
77738;SDS011;66904;59.926;30.404;2024-01-30T03:41:26;1.42;;;0.50;;
77738;SDS011;66904;59.926;30.404;2024-01-30T03:46:37;2.97;;;0.98;;
77738;SDS011;66904;59.926;30.404;2024-01-30T03:51:48;2.53;;;0.70;;
77738;SDS011;66904;59.926;30.404;2024-01-30T03:56:58;2.75;;;1.27;;
77738;SDS011;66904;59.926;30.404;2024-01-30T04:02:10;1.90;;;0.63;;
77738;SDS011;66904;59.926;30.404;2024-01-30T04:07:22;3.53;;;0.98;;
77738;SDS011;66904;59.926;30.404;2024-01-30T04:12:32;3.63;;;1.33;;
77738;SDS011;66904;59.926;30.404;2024-01-30T04:17:43;3.53;;;1.13;;
77738;SDS011;66904;59.926;30.404;2024-01-30T04:22:54;2.42;;;1.20;;
77738;SDS011;66904;59.926;30.404;2024-01-30T04:28:05;3.20;;;1.42;;
77738;SDS011;66904;59.926;30.404;2024-01-30T04:33:16;6.03;;;2.22;;
77738;SDS011;66904;59.926;30.404;2024-01-30T04:38:28;4.15;;;2.28;;
77738;SDS011;66904;59.926;30.404;2024-01-30T04:43:39;5.38;;;2.28;;
77738;SDS011;66904;59.926;30.404;2024-01-30T04:48:50;5.50;;;1.90;;
77738;SDS011;66904;59.926;30.404;2024-01-30T04:54:00;3.30;;;1.50;;
77738;SDS011;66904;59.926;30.404;2024-01-30T04:59:11;3.55;;;1.20;;
77738;SDS011;66904;59.926;30.404;2024-01-30T05:04:22;3.25;;;1.35;;
77738;SDS011;66904;59.926;30.404;2024-01-30T05:09:33;2.95;;;1.45;;
77738;SDS011;66904;59.926;30.404;2024-01-30T05:14:43;2.25;;;1.20;;
77738;SDS011;66904;59.926;30.404;2024-01-30T05:19:54;2.15;;;0.95;;
77738;SDS011;66904;59.926;30.404;2024-01-30T05:25:05;3.92;;;1.52;;
77738;SDS011;66904;59.926;30.404;2024-01-30T05:30:16;6.25;;;1.75;;
77738;SDS011;66904;59.926;30.404;2024-01-30T05:35:27;2.05;;;0.95;;
77738;SDS011;66904;59.926;30.404;2024-01-30T05:40:38;3.40;;;1.35;;
77738;SDS011;66904;59.926;30.404;2024-01-30T05:45:48;1.52;;;0.80;;
77738;SDS011;66904;59.926;30.404;2024-01-30T05:50:59;2.08;;;0.75;;
77738;SDS011;66904;59.926;30.404;2024-01-30T05:56:10;2.03;;;0.90;;
77738;SDS011;66904;59.926;30.404;2024-01-30T06:01:20;1.75;;;1.00;;
77738;SDS011;66904;59.926;30.404;2024-01-30T06:06:31;3.38;;;1.33;;
77738;SDS011;66904;59.926;30.404;2024-01-30T06:11:42;5.10;;;1.17;;
77738;SDS011;66904;59.926;30.404;2024-01-30T06:16:53;2.70;;;1.00;;
77738;SDS011;66904;59.926;30.404;2024-01-30T06:22:04;3.92;;;1.17;;
77738;SDS011;66904;59.926;30.404;2024-01-30T06:32:28;1.52;;;0.90;;
77738;SDS011;66904;59.926;30.404;2024-01-30T06:37:39;1.98;;;0.95;;
77738;SDS011;66904;59.926;30.404;2024-01-30T06:42:49;2.47;;;1.25;;
77738;SDS011;66904;59.926;30.404;2024-01-30T06:48:00;2.05;;;0.95;;
77738;SDS011;66904;59.926;30.404;2024-01-30T06:53:11;1.73;;;0.80;;
77738;SDS011;66904;59.926;30.404;2024-01-30T06:58:22;3.47;;;0.90;;
77738;SDS011;66904;59.926;30.404;2024-01-30T07:03:33;2.38;;;0.98;;
77738;SDS011;66904;59.926;30.404;2024-01-30T07:08:43;1.95;;;0.90;;
77738;SDS011;66904;59.926;30.404;2024-01-30T07:13:54;1.77;;;0.90;;
77738;SDS011;66904;59.926;30.404;2024-01-30T07:19:05;2.40;;;1.08;;
77738;SDS011;66904;59.926;30.404;2024-01-30T07:24:16;2.92;;;1.25;;
77738;SDS011;66904;59.926;30.404;2024-01-30T07:29:27;2.20;;;1.10;;
77738;SDS011;66904;59.926;30.404;2024-01-30T07:34:37;3.00;;;1.13;;
77738;SDS011;66904;59.926;30.404;2024-01-30T07:39:48;3.70;;;1.63;;
77738;SDS011;66904;59.926;30.404;2024-01-30T07:45:00;5.15;;;1.15;;
77738;SDS011;66904;59.926;30.404;2024-01-30T07:50:11;4.45;;;1.27;;
77738;SDS011;66904;59.926;30.404;2024-01-30T07:55:22;3.83;;;1.38;;
77738;SDS011;66904;59.926;30.404;2024-01-30T08:00:34;4.13;;;1.58;;
77738;SDS011;66904;59.926;30.404;2024-01-30T08:05:45;3.05;;;1.17;;
77738;SDS011;66904;59.926;30.404;2024-01-30T08:10:56;2.33;;;1.05;;
77738;SDS011;66904;59.926;30.404;2024-01-30T08:16:06;3.90;;;1.30;;
77738;SDS011;66904;59.926;30.404;2024-01-30T08:21:18;3.65;;;1.70;;
77738;SDS011;66904;59.926;30.404;2024-01-30T08:26:28;3.83;;;1.42;;
77738;SDS011;66904;59.926;30.404;2024-01-30T08:31:39;4.28;;;1.27;;
77738;SDS011;66904;59.926;30.404;2024-01-30T08:36:50;4.05;;;2.00;;
77738;SDS011;66904;59.926;30.404;2024-01-30T08:42:01;2.78;;;1.42;;
77738;SDS011;66904;59.926;30.404;2024-01-30T08:47:11;4.57;;;1.50;;
77738;SDS011;66904;59.926;30.404;2024-01-30T08:52:22;5.38;;;1.65;;
77738;SDS011;66904;59.926;30.404;2024-01-30T08:57:33;2.35;;;1.40;;
77738;SDS011;66904;59.926;30.404;2024-01-30T09:02:44;3.20;;;1.75;;
77738;SDS011;66904;59.926;30.404;2024-01-30T09:07:54;3.38;;;1.30;;
77738;SDS011;66904;59.926;30.404;2024-01-30T09:13:06;3.15;;;1.42;;
77738;SDS011;66904;59.926;30.404;2024-01-30T09:18:16;7.10;;;1.90;;
77738;SDS011;66904;59.926;30.404;2024-01-30T09:23:28;5.90;;;2.22;;
77738;SDS011;66904;59.926;30.404;2024-01-30T09:28:39;5.68;;;2.13;;
77738;SDS011;66904;59.926;30.404;2024-01-30T09:33:49;4.75;;;2.13;;
77738;SDS011;66904;59.926;30.404;2024-01-30T09:39:01;6.00;;;1.95;;
77738;SDS011;66904;59.926;30.404;2024-01-30T09:44:12;4.85;;;2.38;;
77738;SDS011;66904;59.926;30.404;2024-01-30T09:49:26;5.22;;;2.00;;
77738;SDS011;66904;59.926;30.404;2024-01-30T09:54:38;4.85;;;2.30;;
77738;SDS011;66904;59.926;30.404;2024-01-30T09:59:49;4.88;;;2.42;;
77738;SDS011;66904;59.926;30.404;2024-01-30T10:05:01;6.22;;;2.50;;
77738;SDS011;66904;59.926;30.404;2024-01-30T10:10:13;8.18;;;2.97;;
77738;SDS011;66904;59.926;30.404;2024-01-30T10:15:24;7.43;;;3.30;;
77738;SDS011;66904;59.926;30.404;2024-01-30T10:20:36;4.65;;;2.05;;
77738;SDS011;66904;59.926;30.404;2024-01-30T10:25:47;3.10;;;1.55;;
77738;SDS011;66904;59.926;30.404;2024-01-30T10:31:01;2.75;;;1.35;;
77738;SDS011;66904;59.926;30.404;2024-01-30T10:36:15;6.97;;;1.55;;
77738;SDS011;66904;59.926;30.404;2024-01-30T10:41:28;2.95;;;1.60;;
77738;SDS011;66904;59.926;30.404;2024-01-30T10:46:45;3.25;;;1.60;;
77738;SDS011;66904;59.926;30.404;2024-01-30T10:52:06;2.05;;;1.17;;
77738;SDS011;66904;59.926;30.404;2024-01-30T10:57:19;3.08;;;1.23;;
77738;SDS011;66904;59.926;30.404;2024-01-30T11:07:44;2.90;;;1.20;;
77738;SDS011;66904;59.926;30.404;2024-01-30T11:12:54;3.97;;;1.65;;
77738;SDS011;66904;59.926;30.404;2024-01-30T11:18:05;5.05;;;1.67;;
77738;SDS011;66904;59.926;30.404;2024-01-30T11:23:16;2.95;;;1.42;;
77738;SDS011;66904;59.926;30.404;2024-01-30T11:28:31;2.70;;;1.73;;
77738;SDS011;66904;59.926;30.404;2024-01-30T11:33:44;2.28;;;1.00;;
77738;SDS011;66904;59.926;30.404;2024-01-30T11:38:54;3.55;;;1.40;;
77738;SDS011;66904;59.926;30.404;2024-01-30T11:44:06;5.75;;;1.75;;
77738;SDS011;66904;59.926;30.404;2024-01-30T11:49:17;3.15;;;1.70;;
77738;SDS011;66904;59.926;30.404;2024-01-30T11:54:29;2.30;;;1.20;;
77738;SDS011;66904;59.926;30.404;2024-01-30T11:59:39;4.50;;;1.55;;
77738;SDS011;66904;59.926;30.404;2024-01-30T12:04:50;3.92;;;1.25;;
77738;SDS011;66904;59.926;30.404;2024-01-30T12:10:01;2.63;;;1.30;;
77738;SDS011;66904;59.926;30.404;2024-01-30T12:15:14;2.67;;;1.75;;
77738;SDS011;66904;59.926;30.404;2024-01-30T12:20:25;4.35;;;1.60;;
77738;SDS011;66904;59.926;30.404;2024-01-30T12:25:36;3.78;;;1.55;;
77738;SDS011;66904;59.926;30.404;2024-01-30T12:30:47;3.35;;;1.42;;
77738;SDS011;66904;59.926;30.404;2024-01-30T12:36:01;4.85;;;1.85;;
77738;SDS011;66904;59.926;30.404;2024-01-30T12:41:12;4.00;;;1.10;;
77738;SDS011;66904;59.926;30.404;2024-01-30T12:46:29;3.17;;;1.40;;
77738;SDS011;66904;59.926;30.404;2024-01-30T12:51:40;4.25;;;1.17;;
77738;SDS011;66904;59.926;30.404;2024-01-30T12:56:51;3.08;;;1.48;;
77738;SDS011;66904;59.926;30.404;2024-01-30T13:02:01;2.20;;;1.10;;
77738;SDS011;66904;59.926;30.404;2024-01-30T13:07:13;2.70;;;1.38;;
77738;SDS011;66904;59.926;30.404;2024-01-30T13:12:24;3.63;;;1.88;;
77738;SDS011;66904;59.926;30.404;2024-01-30T13:17:35;7.03;;;2.10;;
77738;SDS011;66904;59.926;30.404;2024-01-30T13:22:49;5.70;;;1.83;;
77738;SDS011;66904;59.926;30.404;2024-01-30T13:28:00;4.53;;;2.28;;
77738;SDS011;66904;59.926;30.404;2024-01-30T13:33:11;2.55;;;1.25;;
77738;SDS011;66904;59.926;30.404;2024-01-30T13:38:22;2.15;;;1.23;;
77738;SDS011;66904;59.926;30.404;2024-01-30T13:43:33;2.75;;;1.30;;
77738;SDS011;66904;59.926;30.404;2024-01-30T13:48:43;2.97;;;1.15;;
77738;SDS011;66904;59.926;30.404;2024-01-30T13:53:54;3.88;;;1.45;;
77738;SDS011;66904;59.926;30.404;2024-01-30T13:59:05;2.85;;;1.45;;
77738;SDS011;66904;59.926;30.404;2024-01-30T14:04:16;3.85;;;1.35;;
77738;SDS011;66904;59.926;30.404;2024-01-30T14:09:27;3.42;;;1.58;;
77738;SDS011;66904;59.926;30.404;2024-01-30T14:14:39;4.60;;;1.55;;
77738;SDS011;66904;59.926;30.404;2024-01-30T14:19:50;3.40;;;1.50;;
77738;SDS011;66904;59.926;30.404;2024-01-30T14:25:01;3.60;;;1.45;;
77738;SDS011;66904;59.926;30.404;2024-01-30T14:30:14;2.30;;;1.25;;
77738;SDS011;66904;59.926;30.404;2024-01-30T14:35:25;2.92;;;1.65;;
77738;SDS011;66904;59.926;30.404;2024-01-30T14:40:35;3.70;;;1.25;;
77738;SDS011;66904;59.926;30.404;2024-01-30T14:45:46;2.45;;;1.25;;
77738;SDS011;66904;59.926;30.404;2024-01-30T14:50:59;7.25;;;2.30;;
77738;SDS011;66904;59.926;30.404;2024-01-30T14:56:10;3.63;;;1.42;;
77738;SDS011;66904;59.926;30.404;2024-01-30T15:01:21;4.60;;;1.90;;
77738;SDS011;66904;59.926;30.404;2024-01-30T15:06:32;4.03;;;1.98;;
77738;SDS011;66904;59.926;30.404;2024-01-30T15:11:44;4.95;;;1.95;;
77738;SDS011;66904;59.926;30.404;2024-01-30T15:16:55;3.40;;;1.67;;
77738;SDS011;66904;59.926;30.404;2024-01-30T15:22:06;4.38;;;2.15;;
77738;SDS011;66904;59.926;30.404;2024-01-30T15:27:16;3.33;;;2.00;;
77738;SDS011;66904;59.926;30.404;2024-01-30T15:32:29;3.88;;;2.22;;
77738;SDS011;66904;59.926;30.404;2024-01-30T15:37:40;5.18;;;2.55;;
77738;SDS011;66904;59.926;30.404;2024-01-30T15:42:51;3.85;;;2.03;;
77738;SDS011;66904;59.926;30.404;2024-01-30T15:48:02;3.67;;;1.83;;
77738;SDS011;66904;59.926;30.404;2024-01-30T15:53:12;3.70;;;1.88;;
77738;SDS011;66904;59.926;30.404;2024-01-30T15:58:23;4.88;;;2.33;;
77738;SDS011;66904;59.926;30.404;2024-01-30T16:03:34;4.78;;;2.60;;
77738;SDS011;66904;59.926;30.404;2024-01-30T16:08:45;7.13;;;3.13;;
77738;SDS011;66904;59.926;30.404;2024-01-30T16:13:55;7.88;;;3.55;;
77738;SDS011;66904;59.926;30.404;2024-01-30T16:19:06;6.80;;;2.92;;
77738;SDS011;66904;59.926;30.404;2024-01-30T16:24:17;6.68;;;2.75;;
77738;SDS011;66904;59.926;30.404;2024-01-30T16:29:29;6.15;;;3.42;;
77738;SDS011;66904;59.926;30.404;2024-01-30T16:34:40;8.45;;;3.75;;
77738;SDS011;66904;59.926;30.404;2024-01-30T16:39:51;8.15;;;3.55;;
77738;SDS011;66904;59.926;30.404;2024-01-30T16:45:02;10.90;;;3.80;;
77738;SDS011;66904;59.926;30.404;2024-01-30T16:50:14;10.40;;;4.50;;
77738;SDS011;66904;59.926;30.404;2024-01-30T16:55:25;10.63;;;5.20;;
77738;SDS011;66904;59.926;30.404;2024-01-30T17:00:37;8.50;;;5.13;;
77738;SDS011;66904;59.926;30.404;2024-01-30T17:05:48;9.73;;;4.60;;
77738;SDS011;66904;59.926;30.404;2024-01-30T17:11:04;11.02;;;5.45;;
77738;SDS011;66904;59.926;30.404;2024-01-30T17:16:15;13.40;;;5.60;;
77738;SDS011;66904;59.926;30.404;2024-01-30T17:21:26;10.23;;;5.43;;
77738;SDS011;66904;59.926;30.404;2024-01-30T17:26:36;7.60;;;4.60;;
77738;SDS011;66904;59.926;30.404;2024-01-30T17:31:47;12.35;;;5.82;;
77738;SDS011;66904;59.926;30.404;2024-01-30T17:36:58;13.52;;;5.97;;
77738;SDS011;66904;59.926;30.404;2024-01-30T17:42:09;13.48;;;6.07;;
77738;SDS011;66904;59.926;30.404;2024-01-30T17:47:20;14.23;;;7.35;;
77738;SDS011;66904;59.926;30.404;2024-01-30T17:52:31;17.17;;;7.40;;
77738;SDS011;66904;59.926;30.404;2024-01-30T17:57:41;13.75;;;6.32;;
77738;SDS011;66904;59.926;30.404;2024-01-30T18:02:53;15.38;;;6.75;;
77738;SDS011;66904;59.926;30.404;2024-01-30T18:08:05;11.68;;;6.63;;
77738;SDS011;66904;59.926;30.404;2024-01-30T18:13:17;14.15;;;5.80;;
77738;SDS011;66904;59.926;30.404;2024-01-30T18:18:27;15.00;;;6.53;;
77738;SDS011;66904;59.926;30.404;2024-01-30T18:23:38;13.20;;;5.88;;
77738;SDS011;66904;59.926;30.404;2024-01-30T18:28:49;8.55;;;4.80;;
77738;SDS011;66904;59.926;30.404;2024-01-30T18:34:00;9.57;;;4.40;;
77738;SDS011;66904;59.926;30.404;2024-01-30T18:39:10;9.75;;;4.68;;
77738;SDS011;66904;59.926;30.404;2024-01-30T18:44:21;10.73;;;4.25;;
77738;SDS011;66904;59.926;30.404;2024-01-30T18:49:32;9.98;;;5.00;;
77738;SDS011;66904;59.926;30.404;2024-01-30T18:54:43;9.75;;;4.35;;
77738;SDS011;66904;59.926;30.404;2024-01-30T18:59:53;7.28;;;3.95;;
77738;SDS011;66904;59.926;30.404;2024-01-30T19:05:04;8.27;;;4.20;;
77738;SDS011;66904;59.926;30.404;2024-01-30T19:10:15;10.52;;;4.88;;
77738;SDS011;66904;59.926;30.404;2024-01-30T19:15:27;13.50;;;5.65;;
77738;SDS011;66904;59.926;30.404;2024-01-30T19:20:39;10.35;;;4.75;;
77738;SDS011;66904;59.926;30.404;2024-01-30T19:25:51;10.10;;;3.97;;
77738;SDS011;66904;59.926;30.404;2024-01-30T19:31:02;8.35;;;4.10;;
77738;SDS011;66904;59.926;30.404;2024-01-30T19:36:13;8.80;;;3.85;;
77738;SDS011;66904;59.926;30.404;2024-01-30T19:41:24;8.55;;;3.60;;
77738;SDS011;66904;59.926;30.404;2024-01-30T19:46:36;7.97;;;4.00;;
77738;SDS011;66904;59.926;30.404;2024-01-30T19:51:47;9.27;;;4.53;;
77738;SDS011;66904;59.926;30.404;2024-01-30T19:56:58;6.60;;;2.72;;
77738;SDS011;66904;59.926;30.404;2024-01-30T20:02:10;6.57;;;3.30;;
77738;SDS011;66904;59.926;30.404;2024-01-30T20:07:25;6.20;;;2.92;;
77738;SDS011;66904;59.926;30.404;2024-01-30T20:12:36;6.43;;;2.13;;
77738;SDS011;66904;59.926;30.404;2024-01-30T20:17:51;7.60;;;2.50;;
77738;SDS011;66904;59.926;30.404;2024-01-30T20:23:02;5.75;;;2.45;;
77738;SDS011;66904;59.926;30.404;2024-01-30T20:28:13;5.45;;;2.47;;
77738;SDS011;66904;59.926;30.404;2024-01-30T20:33:24;7.63;;;2.78;;
77738;SDS011;66904;59.926;30.404;2024-01-30T20:38:35;4.45;;;2.10;;
77738;SDS011;66904;59.926;30.404;2024-01-30T20:43:46;4.75;;;2.05;;
77738;SDS011;66904;59.926;30.404;2024-01-30T20:48:57;4.32;;;1.90;;
77738;SDS011;66904;59.926;30.404;2024-01-30T20:54:10;5.70;;;2.25;;
77738;SDS011;66904;59.926;30.404;2024-01-30T20:59:22;5.15;;;2.28;;
77738;SDS011;66904;59.926;30.404;2024-01-30T21:04:32;4.75;;;2.05;;
77738;SDS011;66904;59.926;30.404;2024-01-30T21:09:43;3.83;;;1.85;;
77738;SDS011;66904;59.926;30.404;2024-01-30T21:14:54;3.60;;;1.73;;
77738;SDS011;66904;59.926;30.404;2024-01-30T21:20:05;3.65;;;1.70;;
77738;SDS011;66904;59.926;30.404;2024-01-30T21:25:16;6.65;;;2.05;;
77738;SDS011;66904;59.926;30.404;2024-01-30T21:30:29;4.75;;;1.98;;
77738;SDS011;66904;59.926;30.404;2024-01-30T21:35:40;4.15;;;1.80;;
77738;SDS011;66904;59.926;30.404;2024-01-30T21:40:51;5.53;;;2.05;;
77738;SDS011;66904;59.926;30.404;2024-01-30T21:46:02;6.22;;;2.35;;
77738;SDS011;66904;59.926;30.404;2024-01-30T21:51:13;2.58;;;1.60;;
77738;SDS011;66904;59.926;30.404;2024-01-30T21:56:23;6.43;;;2.28;;
77738;SDS011;66904;59.926;30.404;2024-01-30T22:01:34;5.95;;;1.85;;
77738;SDS011;66904;59.926;30.404;2024-01-30T22:06:45;5.57;;;2.03;;
77738;SDS011;66904;59.926;30.404;2024-01-30T22:11:56;3.90;;;2.10;;
77738;SDS011;66904;59.926;30.404;2024-01-30T22:17:07;7.35;;;2.47;;
77738;SDS011;66904;59.926;30.404;2024-01-30T22:22:17;4.95;;;1.90;;
77738;SDS011;66904;59.926;30.404;2024-01-30T22:27:28;4.75;;;1.88;;
77738;SDS011;66904;59.926;30.404;2024-01-30T22:32:39;3.05;;;1.70;;
77738;SDS011;66904;59.926;30.404;2024-01-30T22:37:49;3.60;;;2.08;;
77738;SDS011;66904;59.926;30.404;2024-01-30T22:43:00;4.38;;;1.85;;
77738;SDS011;66904;59.926;30.404;2024-01-30T22:48:13;3.42;;;1.95;;
77738;SDS011;66904;59.926;30.404;2024-01-30T22:53:23;2.90;;;1.20;;
77738;SDS011;66904;59.926;30.404;2024-01-30T22:58:34;4.03;;;1.65;;
77738;SDS011;66904;59.926;30.404;2024-01-30T23:03:46;3.42;;;1.17;;
77738;SDS011;66904;59.926;30.404;2024-01-30T23:08:57;2.63;;;1.27;;
77738;SDS011;66904;59.926;30.404;2024-01-30T23:14:07;8.32;;;2.33;;
77738;SDS011;66904;59.926;30.404;2024-01-30T23:19:19;5.10;;;1.63;;
77738;SDS011;66904;59.926;30.404;2024-01-30T23:24:29;5.20;;;1.95;;
77738;SDS011;66904;59.926;30.404;2024-01-30T23:29:40;3.80;;;1.67;;
77738;SDS011;66904;59.926;30.404;2024-01-30T23:34:51;4.47;;;1.33;;
77738;SDS011;66904;59.926;30.404;2024-01-30T23:40:02;2.55;;;1.10;;
77738;SDS011;66904;59.926;30.404;2024-01-30T23:45:14;3.20;;;1.50;;
77738;SDS011;66904;59.926;30.404;2024-01-30T23:50:25;0.73;;;0.40;;
77738;SDS011;66904;59.926;30.404;2024-01-30T23:55:35;2.85;;;1.05;;
